Time;durP1;ratioP1;P1;durP2;ratioP2;P2;SDS_P1;SDS_P2;PMS_P1;PMS_P2;Temp;Humidity;BMP_temperature;BMP_pressure;BME280_temperature;BME280_humidity;BME280_pressure;Samples;Min_cycle;Max_cycle;Signal;HPM_P1;HPM_P2
2021/10/05 00:30:30;;;;;;;3.05;1.20;;;;;;;18.53;64.25;101085.63;4960325;29;20034;-89
2021/10/05 00:43:52;;;;;;;3.72;1.27;;;;;;;18.51;64.29;101069.13;5811919;23;20034;-86
2021/10/05 03:47:57;;;;;;;1.80;0.80;;;;;;;18.37;63.62;100813.06;5561049;23;20122;-85
2021/10/05 05:01:34;;;;;;;1.38;0.70;;;;;;;18.30;63.24;100723.72;5876909;23;20062;-79
2021/10/05 05:03:59;;;;;;;0.95;0.65;;;;;;;18.28;63.08;100718.50;4950442;28;20037;-81
2021/10/05 05:06:25;;;;;;;1.65;0.80;;;;;;;18.29;63.04;100715.03;4960266;28;20034;-81
2021/10/05 05:08:51;;;;;;;1.38;0.65;;;;;;;18.27;63.10;100706.38;4973620;28;20087;-84
2021/10/05 05:36:00;;;;;;;8.07;3.15;;;;;;;18.38;62.99;100674.06;5092620;23;20051;-87
2021/10/05 06:12:08;;;;;;;4.80;2.00;;;;;;;18.42;62.87;100655.78;5108142;23;20053;-90
2021/10/05 06:17:39;;;;;;;5.97;2.40;;;;;;;18.42;62.76;100655.78;5258790;23;20055;-89
2021/10/05 06:31:50;;;;;;;5.30;2.00;;;;;;;18.45;62.61;100634.03;4958764;28;20385;-84
2021/10/05 06:34:15;;;;;;;5.47;2.20;;;;;;;18.45;62.51;100631.44;4907762;29;20036;-87
2021/10/05 06:39:24;;;;;;;6.75;2.28;;;;;;;18.46;62.61;100618.34;5124481;23;20055;-89
2021/10/05 06:48:37;;;;;;;5.75;2.42;;;;;;;18.50;62.47;100616.56;4998500;28;20122;-89
2021/10/05 06:57:26;;;;;;;4.13;1.67;;;;;;;18.51;62.61;100607.88;5021330;23;20051;-89
2021/10/05 07:12:33;;;;;;;4.45;1.80;;;;;;;18.56;62.47;100574.78;4998616;28;20045;-89
2021/10/05 07:18:20;;;;;;;3.85;1.80;;;;;;;18.56;62.60;100564.34;4997870;28;20021;-88
2021/10/05 07:29:41;;;;;;;3.40;1.67;;;;;;;18.57;62.35;100550.41;5231111;23;20062;-89
2021/10/05 07:32:08;;;;;;;3.25;1.60;;;;;;;18.57;62.35;100550.41;4979397;28;20082;-88
2021/10/05 07:34:33;;;;;;;5.45;1.52;;;;;;;19.04;61.07;100535.66;4967530;28;20050;-90
2021/10/05 07:36:58;;;;;;;3.88;1.67;;;;;;;19.44;59.55;100529.59;4927830;28;20483;-91
2021/10/05 07:39:25;;;;;;;4.18;2.00;;;;;;;19.65;59.12;100523.03;4960050;28;20114;-93
2021/10/05 07:41:50;;;;;;;4.57;1.70;;;;;;;19.72;59.00;100521.16;4943575;28;20471;-91
2021/10/05 07:44:16;;;;;;;3.53;1.70;;;;;;;19.74;58.80;100514.16;4943541;28;20046;-92
2021/10/05 07:46:41;;;;;;;3.67;1.63;;;;;;;19.76;58.85;100517.59;4943698;28;20034;-92
2021/10/05 07:49:07;;;;;;;3.15;1.50;;;;;;;19.75;58.87;100510.66;4927603;28;20023;-90
2021/10/05 07:51:33;;;;;;;4.57;1.83;;;;;;;19.72;59.46;100502.88;4942821;28;20035;-90
2021/10/05 07:53:58;;;;;;;3.45;1.50;;;;;;;19.67;59.61;100497.75;4943076;28;20050;-92
2021/10/05 07:56:24;;;;;;;4.00;1.77;;;;;;;19.65;59.90;100504.75;4959080;28;20019;-89
2021/10/05 07:58:52;;;;;;;6.97;2.05;;;;;;;19.62;59.80;100494.41;4943128;28;20026;-91
2021/10/05 08:01:17;;;;;;;4.80;1.80;;;;;;;19.57;59.94;100487.56;4943653;28;20041;-90
2021/10/05 08:03:43;;;;;;;3.65;1.85;;;;;;;19.55;60.25;100477.16;4927467;28;20476;-90
2021/10/05 08:06:08;;;;;;;3.30;1.60;;;;;;;19.50;59.99;100479.88;4943397;28;20035;-91
2021/10/05 08:08:34;;;;;;;4.00;1.45;;;;;;;19.45;60.08;100468.69;4959273;28;20034;-90
2021/10/05 08:10:59;;;;;;;3.67;1.60;;;;;;;19.42;59.80;100455.69;4959356;28;20106;-90
2021/10/05 08:13:25;;;;;;;3.35;1.58;;;;;;;19.40;60.09;100443.56;4943036;28;20035;-89
2021/10/05 08:15:51;;;;;;;3.92;1.48;;;;;;;19.37;60.22;100441.91;4958717;28;20031;-89
2021/10/05 08:18:16;;;;;;;3.97;1.70;;;;;;;19.33;60.14;100443.72;4958945;28;20035;-89
2021/10/05 08:20:42;;;;;;;5.97;1.60;;;;;;;19.31;60.19;100437.69;4927603;28;20037;-89
2021/10/05 08:23:08;;;;;;;3.13;1.50;;;;;;;19.29;60.26;100433.38;4943491;28;20031;-89
2021/10/05 08:25:33;;;;;;;4.32;1.85;;;;;;;19.27;60.61;100438.66;4959107;28;20620;-89
2021/10/05 08:27:59;;;;;;;3.13;1.65;;;;;;;19.26;60.71;100429.09;4943142;28;20483;-89
2021/10/05 08:30:25;;;;;;;3.40;1.55;;;;;;;19.24;60.65;100437.88;4927262;28;20391;-89
2021/10/05 08:32:51;;;;;;;3.10;1.60;;;;;;;19.23;60.64;100426.59;4943227;28;20505;-90
2021/10/05 08:35:17;;;;;;;2.53;1.25;;;;;;;19.22;60.74;100427.47;4959548;28;20026;-89
2021/10/05 08:37:43;;;;;;;6.72;1.67;;;;;;;19.19;60.88;100427.53;4976799;28;20030;-90
2021/10/05 08:40:11;;;;;;;3.75;1.45;;;;;;;19.19;60.88;100421.47;4943378;28;20526;-88
2021/10/05 08:42:37;;;;;;;3.88;1.50;;;;;;;19.17;61.14;100413.66;4959858;28;20015;-89
2021/10/05 08:45:04;;;;;;;3.28;1.50;;;;;;;19.16;60.97;100421.53;4959825;28;20034;-87
2021/10/05 08:47:30;;;;;;;2.42;1.33;;;;;;;19.14;61.17;100408.53;4962420;28;20034;-88
2021/10/05 08:49:55;;;;;;;3.03;1.23;;;;;;;19.14;61.39;100418.09;4962019;28;20031;-89
2021/10/05 08:52:21;;;;;;;2.80;1.40;;;;;;;19.14;61.15;100405.06;4960670;28;20027;-88
2021/10/05 08:54:47;;;;;;;4.25;1.40;;;;;;;19.14;61.26;100405.94;4962716;28;20066;-88
2021/10/05 08:57:13;;;;;;;2.15;1.20;;;;;;;19.11;61.36;100399.00;4930421;28;20387;-89
2021/10/05 08:59:38;;;;;;;3.00;1.30;;;;;;;19.09;61.40;100400.78;4983081;28;20082;-88
2021/10/05 09:02:12;;;;;;;2.17;1.23;;;;;;;19.10;61.53;100396.47;4930590;28;20027;-87
2021/10/05 09:04:37;;;;;;;2.83;1.50;;;;;;;19.11;61.28;100393.78;4951821;28;20459;-89
2021/10/05 09:07:16;;;;;;;2.67;1.25;;;;;;;19.14;61.24;100382.47;4931088;28;20039;-89
2021/10/05 09:10:02;;;;;;;2.13;1.25;;;;;;;19.12;61.27;100373.81;4965126;28;20019;-88
2021/10/05 09:12:32;;;;;;;2.42;1.20;;;;;;;19.09;61.28;100374.72;4967249;28;20023;-88
2021/10/05 09:14:59;;;;;;;4.38;1.00;;;;;;;19.09;61.30;100374.72;4969253;28;20089;-88
2021/10/05 09:17:27;;;;;;;1.65;1.10;;;;;;;19.09;61.17;100379.94;4937955;28;20031;-88
2021/10/05 09:19:54;;;;;;;3.10;1.10;;;;;;;19.09;61.24;100377.31;4952668;28;20037;-90
2021/10/05 09:22:25;;;;;;;2.95;1.27;;;;;;;19.10;61.04;100365.16;4952924;28;20373;-88
2021/10/05 09:24:53;;;;;;;3.03;1.10;;;;;;;19.13;60.98;100375.50;4966446;28;20031;-88
2021/10/05 09:27:19;;;;;;;3.75;1.20;;;;;;;19.18;60.89;100375.41;4963497;28;20031;-89
2021/10/05 09:29:47;;;;;;;2.75;1.42;;;;;;;19.17;60.89;100381.53;4933977;28;20062;-90
2021/10/05 09:32:15;;;;;;;2.10;0.95;;;;;;;19.16;61.05;100362.38;4932937;28;20027;-90
2021/10/05 09:35:04;;;;;;;3.47;1.10;;;;;;;19.18;60.96;100370.19;4963357;28;20054;-91
2021/10/05 09:37:32;;;;;;;2.28;1.10;;;;;;;19.18;60.73;100363.22;4986115;28;20027;-87
2021/10/05 09:40:16;;;;;;;2.95;1.10;;;;;;;19.18;60.85;100363.22;4964090;28;20039;-88
2021/10/05 09:42:50;;;;;;;2.08;1.13;;;;;;;19.18;60.89;100352.78;4948542;28;20023;-89
2021/10/05 09:45:18;;;;;;;2.90;1.10;;;;;;;19.17;60.94;100351.06;4933297;28;20042;-90
2021/10/05 09:47:44;;;;;;;2.55;1.20;;;;;;;19.18;60.97;100351.91;4972646;28;20022;-88
2021/10/05 09:53:16;;;;;;;2.20;0.90;;;;;;;19.19;61.03;100335.41;4994367;28;20119;-89
2021/10/05 09:55:46;;;;;;;2.42;1.10;;;;;;;19.17;60.88;100345.00;4958005;28;20034;-87
2021/10/05 09:58:15;;;;;;;2.92;1.20;;;;;;;19.15;61.09;100331.16;4974316;28;20098;-88
2021/10/05 10:00:44;;;;;;;2.45;1.23;;;;;;;19.11;61.16;100331.19;4978052;28;20058;-88
2021/10/05 10:03:10;;;;;;;3.67;1.17;;;;;;;19.10;61.20;100329.50;4982780;28;20027;-89
2021/10/05 10:05:38;;;;;;;1.90;0.98;;;;;;;19.09;61.26;100324.31;4959050;28;20034;-89
2021/10/05 10:08:04;;;;;;;1.55;0.90;;;;;;;19.09;61.06;100325.16;4998879;28;20046;-88
2021/10/05 10:10:33;;;;;;;2.28;0.93;;;;;;;19.09;61.13;100324.31;4965681;28;20031;-87
2021/10/05 10:13:04;;;;;;;2.60;0.95;;;;;;;19.10;61.12;100321.66;4997767;28;20010;-90
2021/10/05 10:15:33;;;;;;;2.25;1.10;;;;;;;19.11;61.01;100322.53;4980754;28;20033;-88
2021/10/05 10:21:47;;;;;;;2.00;1.08;;;;;;;19.12;61.08;100303.38;4998032;28;20046;-88
2021/10/05 10:24:13;;;;;;;3.58;1.38;;;;;;;19.11;61.01;100307.72;4998762;28;20062;-90
2021/10/05 10:26:44;;;;;;;1.77;1.08;;;;;;;19.13;61.07;100301.63;4963980;28;20031;-89
2021/10/05 10:29:11;;;;;;;2.00;0.90;;;;;;;19.12;61.20;100298.16;4979692;28;20085;-88
2021/10/05 10:31:39;;;;;;;1.50;0.90;;;;;;;19.10;61.17;100298.19;4980408;28;20034;-89
2021/10/05 10:34:05;;;;;;;1.88;0.93;;;;;;;19.08;60.98;100293.91;4980883;28;20022;-88
2021/10/05 10:36:32;;;;;;;2.03;0.90;;;;;;;19.05;61.30;100292.25;4981032;28;20019;-87
2021/10/05 10:39:10;;;;;;;2.58;1.00;;;;;;;19.04;61.17;100287.91;4978396;28;20049;-88
2021/10/05 10:41:39;;;;;;;2.60;1.00;;;;;;;19.06;61.18;100280.91;4971924;28;20022;-88
2021/10/05 10:44:06;;;;;;;1.98;0.90;;;;;;;19.04;61.23;100279.25;4965798;28;20027;-87
2021/10/05 10:46:34;;;;;;;2.78;0.90;;;;;;;19.01;61.09;100274.97;4949560;28;20490;-91
2021/10/05 10:49:01;;;;;;;1.55;0.80;;;;;;;18.99;61.29;100276.75;4965917;28;20485;-85
2021/10/05 10:51:28;;;;;;;3.97;1.02;;;;;;;19.00;61.47;100264.56;4963646;28;20038;-85
2021/10/05 10:53:56;;;;;;;2.75;0.80;;;;;;;18.98;61.32;100272.41;4981822;28;20030;-86
2021/10/05 10:56:43;;;;;;;1.75;0.90;;;;;;;18.99;61.38;100252.41;4964217;28;20027;-86
2021/10/05 10:59:12;;;;;;;1.27;0.80;;;;;;;18.99;61.48;100262.84;4965110;28;20022;-88
2021/10/05 11:01:47;;;;;;;2.38;1.00;;;;;;;18.97;61.61;100251.63;4964284;28;20022;-87
2021/10/05 11:04:17;;;;;;;1.50;0.80;;;;;;;18.95;61.58;100261.22;4982532;28;20034;-86
2021/10/05 11:07:02;;;;;;;2.60;0.88;;;;;;;18.94;61.59;100257.72;4951012;28;20384;-87
2021/10/05 11:09:33;;;;;;;2.60;1.02;;;;;;;18.95;61.66;100256.84;4972600;28;20375;-86
2021/10/05 11:11:59;;;;;;;1.77;0.80;;;;;;;18.95;61.48;100250.78;4966110;28;20027;-87
2021/10/05 11:21:12;;;;;;;1.75;0.88;;;;;;;18.94;61.44;100236.03;4986852;28;20053;-88
2021/10/05 11:23:43;;;;;;;1.77;1.00;;;;;;;18.91;61.51;100240.41;4964926;28;20113;-89
2021/10/05 11:26:08;;;;;;;1.42;0.75;;;;;;;18.93;61.50;100236.94;4960119;28;20033;-87
2021/10/05 11:28:34;;;;;;;1.75;1.00;;;;;;;18.90;61.50;100235.22;4962993;28;20026;-87
2021/10/05 11:31:21;;;;;;;2.03;0.90;;;;;;;18.88;61.78;100235.28;4979543;28;20058;-89
2021/10/05 11:37:54;;;;;;;3.33;0.95;;;;;;;18.89;61.67;100236.13;4998299;28;20037;-89
2021/10/05 11:42:54;;;;;;;2.65;0.80;;;;;;;18.86;61.59;100238.84;5121829;23;20051;-86
2021/10/05 11:45:27;;;;;;;1.50;0.80;;;;;;;18.86;61.66;100241.44;4957080;28;20185;-90
2021/10/05 11:47:57;;;;;;;1.52;0.70;;;;;;;18.86;61.63;100251.88;4959515;28;20119;-88
2021/10/05 11:50:22;;;;;;;1.95;0.80;;;;;;;18.86;61.64;100251.88;4977955;28;20034;-89
2021/10/05 11:52:49;;;;;;;1.90;0.90;;;;;;;18.87;61.67;100240.53;4961341;28;20058;-89
2021/10/05 11:55:14;;;;;;;1.63;0.68;;;;;;;18.86;61.51;100238.84;4977046;28;20035;-86
2021/10/05 11:57:42;;;;;;;1.42;0.80;;;;;;;18.85;61.61;100237.09;4975819;28;20030;-89
2021/10/05 12:03:38;;;;;;;1.67;0.80;;;;;;;18.85;61.60;100224.06;4994520;28;20096;-91
2021/10/05 12:06:03;;;;;;;1.63;0.90;;;;;;;18.82;61.61;100235.44;4968993;28;20233;-88
2021/10/05 12:08:29;;;;;;;1.27;0.65;;;;;;;18.83;61.76;100228.47;4959614;28;20031;-89
2021/10/05 12:10:54;;;;;;;1.90;0.75;;;;;;;18.82;61.50;100230.22;4975084;28;20030;-88
2021/10/05 12:14:00;;;;;;;1.70;0.90;;;;;;;18.83;61.57;100231.91;4957784;28;20439;-86
2021/10/05 12:16:25;;;;;;;1.65;0.80;;;;;;;18.82;61.55;100227.63;4979214;28;20106;-87
2021/10/05 12:18:59;;;;;;;3.13;0.63;;;;;;;18.83;61.55;100226.72;4975949;28;20030;-89
2021/10/05 12:21:26;;;;;;;1.75;0.77;;;;;;;18.83;61.65;100225.84;4953671;28;20094;-88
2021/10/05 12:23:57;;;;;;;1.48;0.80;;;;;;;18.83;61.68;100218.88;4953485;28;20035;-85
2021/10/05 12:26:23;;;;;;;1.17;0.80;;;;;;;18.82;61.72;100211.13;4986440;28;20105;-88
2021/10/05 12:29:03;;;;;;;1.73;0.80;;;;;;;18.83;61.82;100213.66;4965283;28;20510;-86
2021/10/05 12:31:29;;;;;;;1.33;0.70;;;;;;;18.82;61.55;100214.59;4968609;28;20105;-86
2021/10/05 12:37:00;;;;;;;1.30;0.70;;;;;;;18.81;61.67;100212.00;4991822;28;20403;-89
2021/10/05 12:39:25;;;;;;;1.85;0.80;;;;;;;18.81;61.79;100206.78;4977375;28;20023;-88
2021/10/05 12:42:06;;;;;;;3.03;0.82;;;;;;;18.82;61.91;100206.75;4974308;28;20035;-89
2021/10/05 12:44:35;;;;;;;1.25;0.70;;;;;;;18.80;61.42;100203.34;4973836;28;20504;-88
2021/10/05 12:47:12;;;;;;;1.13;0.70;;;;;;;18.81;61.63;100204.19;4958251;28;20042;-90
2021/10/05 12:49:49;;;;;;;1.33;0.50;;;;;;;18.78;61.57;100202.50;4976285;28;20062;-87
2021/10/05 12:52:15;;;;;;;1.55;0.70;;;;;;;18.80;61.78;100202.47;4969761;28;20391;-86
2021/10/05 12:54:40;;;;;;;1.80;0.88;;;;;;;18.81;61.64;100201.56;4970774;28;20129;-85
2021/10/05 12:57:08;;;;;;;1.63;0.60;;;;;;;18.79;61.66;100200.75;4937992;28;20090;-87
2021/10/05 12:59:34;;;;;;;1.98;0.82;;;;;;;18.79;61.64;100199.03;4945975;28;20022;-87
2021/10/05 13:01:59;;;;;;;1.35;0.70;;;;;;;18.79;61.83;100192.94;4944615;28;20030;-82
2021/10/05 13:04:25;;;;;;;1.35;0.70;;;;;;;18.79;61.79;100195.53;4933705;28;20023;-89
2021/10/05 13:06:51;;;;;;;1.88;1.08;;;;;;;18.78;61.97;100192.09;4955286;28;20078;-88
2021/10/05 13:09:17;;;;;;;2.30;0.85;;;;;;;18.80;61.90;100192.06;4971437;28;20023;-87
2021/10/05 13:11:42;;;;;;;1.63;0.80;;;;;;;18.79;61.94;100188.59;4979876;28;20027;-88
2021/10/05 13:14:09;;;;;;;2.78;0.90;;;;;;;18.80;61.94;100189.44;4961152;28;20502;-88
2021/10/05 13:16:34;;;;;;;3.65;0.77;;;;;;;18.79;61.93;100193.81;4954795;28;20038;-88
2021/10/05 13:19:00;;;;;;;4.40;0.90;;;;;;;18.79;61.87;100183.38;4949881;28;20027;-87
2021/10/05 13:21:25;;;;;;;1.73;0.80;;;;;;;18.79;62.11;100187.72;4937376;28;20493;-87
2021/10/05 13:30:35;;;;;;;2.05;0.70;;;;;;;18.79;61.87;100185.13;4988908;28;20086;-87
2021/10/05 13:33:01;;;;;;;2.00;0.80;;;;;;;18.80;62.11;100186.84;4939666;28;20031;-87
2021/10/05 13:35:31;;;;;;;1.27;0.73;;;;;;;18.79;61.91;100179.91;4938406;28;20027;-87
2021/10/05 13:37:56;;;;;;;1.42;0.50;;;;;;;18.78;61.99;100178.22;4975691;28;20038;-87
2021/10/05 13:40:24;;;;;;;1.70;0.60;;;;;;;18.77;62.22;100174.72;4943849;28;20031;-87
2021/10/05 13:42:52;;;;;;;2.55;0.68;;;;;;;18.77;62.22;100181.66;4956461;28;20023;-87
2021/10/05 13:52:02;;;;;;;1.60;0.80;;;;;;;18.78;61.97;100168.63;4994083;28;20038;-87
2021/10/05 13:54:27;;;;;;;4.13;0.93;;;;;;;18.78;62.00;100180.81;4956023;28;20102;-89
2021/10/05 13:56:53;;;;;;;2.00;0.63;;;;;;;18.77;62.18;100185.16;4941019;28;20041;-87
2021/10/05 13:59:19;;;;;;;1.85;0.70;;;;;;;18.76;62.06;100179.97;4958631;28;20042;-87
2021/10/05 14:01:44;;;;;;;1.73;0.82;;;;;;;18.77;62.14;100190.34;4968680;28;20015;-86
2021/10/05 14:04:10;;;;;;;1.30;0.60;;;;;;;18.77;62.00;100181.66;4957850;28;20022;-86
2021/10/05 14:06:35;;;;;;;1.08;0.60;;;;;;;18.75;62.07;100173.91;4952596;28;20034;-87
2021/10/05 14:09:00;;;;;;;2.00;0.75;;;;;;;18.76;62.07;100180.81;4967716;28;20165;-87
2021/10/05 14:11:26;;;;;;;1.80;0.57;;;;;;;18.78;61.95;100183.41;4948400;28;20027;-86
2021/10/05 14:13:56;;;;;;;1.67;0.80;;;;;;;18.81;61.87;100194.59;4951302;28;20051;-88
2021/10/05 14:16:22;;;;;;;1.15;0.45;;;;;;;18.84;61.88;100191.94;4956974;28;20471;-87
2021/10/05 14:18:47;;;;;;;2.38;0.80;;;;;;;18.85;61.95;100179.75;4939887;28;20069;-89
2021/10/05 14:21:17;;;;;;;1.00;0.60;;;;;;;18.88;61.89;100190.13;4945586;28;20033;-88
2021/10/05 14:23:43;;;;;;;1.08;0.57;;;;;;;18.88;62.17;100195.34;4948265;28;20794;-87
2021/10/05 14:26:08;;;;;;;2.08;0.70;;;;;;;18.87;62.05;100191.84;4974000;28;20027;-89
2021/10/05 14:28:34;;;;;;;1.40;0.57;;;;;;;18.88;61.98;100187.50;4938118;28;20046;-88
2021/10/05 14:30:59;;;;;;;1.88;0.60;;;;;;;18.87;61.98;100188.41;4945246;28;20094;-88
2021/10/05 14:33:24;;;;;;;1.00;0.57;;;;;;;18.86;61.82;100186.69;4959202;28;20106;-88
2021/10/05 14:35:50;;;;;;;1.85;0.70;;;;;;;18.88;61.76;100193.56;4942151;28;20169;-88
2021/10/05 14:38:15;;;;;;;1.77;0.70;;;;;;;18.89;62.03;100197.88;4958525;28;20029;-88
2021/10/05 14:40:41;;;;;;;1.20;0.55;;;;;;;18.91;62.01;100203.91;4971184;28;20027;-87
2021/10/05 14:43:06;;;;;;;0.80;0.50;;;;;;;18.93;62.01;100209.09;4974828;28;20026;-88
2021/10/05 14:45:33;;;;;;;0.95;0.68;;;;;;;18.94;61.73;100208.19;4954745;28;20501;-88
2021/10/05 14:47:59;;;;;;;0.98;0.60;;;;;;;18.95;61.74;100207.31;4966397;28;20019;-88
2021/10/05 14:50:26;;;;;;;1.20;0.70;;;;;;;18.94;61.86;100205.59;4966681;28;20023;-88
2021/10/05 14:52:52;;;;;;;1.23;0.63;;;;;;;18.96;61.91;100201.19;4953210;28;20031;-87
2021/10/05 14:55:18;;;;;;;1.17;0.60;;;;;;;18.97;61.74;100208.13;4954794;28;20056;-88
2021/10/05 14:57:51;;;;;;;0.57;0.52;;;;;;;18.98;61.68;100208.97;4954015;28;20038;-88
2021/10/05 15:00:17;;;;;;;1.55;0.70;;;;;;;18.95;61.72;100204.72;4956385;28;20037;-88
2021/10/05 15:02:42;;;;;;;1.95;0.60;;;;;;;18.97;61.80;100210.75;4954138;28;20054;-89
2021/10/05 15:05:10;;;;;;;1.00;0.55;;;;;;;18.95;61.90;100203.84;4968839;28;20026;-86
2021/10/05 15:07:36;;;;;;;1.67;0.50;;;;;;;18.95;61.86;100211.69;4954232;28;20061;-88
2021/10/05 15:10:04;;;;;;;0.98;0.50;;;;;;;18.91;62.10;100208.28;4971668;28;20034;-88
2021/10/05 15:12:29;;;;;;;0.52;0.40;;;;;;;18.91;62.12;100205.69;4970966;28;20094;-89
2021/10/05 15:14:55;;;;;;;1.63;0.52;;;;;;;18.91;61.92;100203.91;4955341;28;20121;-86
2021/10/05 15:17:20;;;;;;;1.02;0.52;;;;;;;18.94;61.86;100213.41;4957660;28;20034;-89
2021/10/05 15:19:46;;;;;;;0.80;0.55;;;;;;;18.93;61.82;100206.50;4954837;28;20030;-86
2021/10/05 15:22:11;;;;;;;0.70;0.50;;;;;;;18.95;61.94;100214.28;4952102;28;20054;-87
2021/10/05 15:24:37;;;;;;;1.20;0.50;;;;;;;18.94;61.86;100216.00;4934347;28;20026;-87
2021/10/05 15:27:03;;;;;;;1.17;0.50;;;;;;;18.94;61.99;100216.00;4933435;28;20537;-87
2021/10/05 15:29:29;;;;;;;1.63;0.60;;;;;;;18.95;61.86;100222.97;4948058;28;20057;-89
2021/10/05 15:31:55;;;;;;;0.98;0.50;;;;;;;18.92;62.01;100217.81;4951306;28;20031;-88
2021/10/05 15:34:20;;;;;;;1.67;0.57;;;;;;;18.92;62.02;100230.84;4952503;28;20034;-87
2021/10/05 15:36:47;;;;;;;1.52;0.70;;;;;;;18.91;62.22;100229.13;4973583;28;20027;-87
2021/10/05 15:39:14;;;;;;;0.80;0.50;;;;;;;18.90;61.95;100228.28;4973286;28;20054;-87
2021/10/05 15:41:40;;;;;;;1.25;0.75;;;;;;;18.91;62.05;100224.78;4972923;28;20022;-89
2021/10/05 15:44:06;;;;;;;1.45;0.75;;;;;;;18.91;61.89;100224.78;4952238;28;20089;-88
2021/10/05 15:46:33;;;;;;;1.70;0.60;;;;;;;18.88;62.01;100227.47;4968997;28;20054;-87
2021/10/05 15:48:58;;;;;;;3.17;0.80;;;;;;;18.87;62.12;100227.50;4968345;28;20031;-86
2021/10/05 16:01:32;;;;;;;2.10;0.70;;;;;;;18.85;61.98;100240.56;4991287;28;20034;-88
2021/10/05 16:03:57;;;;;;;2.05;0.82;;;;;;;18.90;61.94;100248.25;4954532;28;20403;-86
2021/10/05 16:06:22;;;;;;;3.03;0.77;;;;;;;18.90;61.86;100246.53;4968937;28;20034;-86
2021/10/05 16:08:48;;;;;;;2.67;0.80;;;;;;;18.92;62.15;100251.69;4934547;28;20497;-87
2021/10/05 16:11:14;;;;;;;1.73;0.73;;;;;;;18.92;61.89;100256.91;4970184;28;20027;-87
2021/10/05 16:13:47;;;;;;;1.58;0.77;;;;;;;18.90;61.86;100263.91;4967649;28;20093;-87
2021/10/05 16:16:13;;;;;;;2.38;1.00;;;;;;;18.89;62.09;100259.59;4953235;28;20031;-89
2021/10/05 16:18:44;;;;;;;1.83;0.80;;;;;;;18.86;61.98;100263.16;4949844;28;20042;-87
2021/10/05 16:21:44;;;;;;;2.70;0.70;;;;;;;18.87;62.01;100277.03;4987624;28;20038;-89
2021/10/05 16:24:09;;;;;;;2.25;0.80;;;;;;;18.84;62.04;100275.38;4973913;28;20039;-89
2021/10/05 16:26:35;;;;;;;4.35;1.00;;;;;;;18.86;61.92;100277.94;4957323;28;20041;-87
2021/10/05 16:32:07;;;;;;;2.88;0.90;;;;;;;18.84;62.06;100283.19;4989455;28;20041;-79
2021/10/05 16:34:32;;;;;;;2.50;0.90;;;;;;;18.82;61.99;100284.97;4985310;28;20031;-88
2021/10/05 16:36:58;;;;;;;2.40;0.88;;;;;;;18.81;62.04;100279.78;4971541;28;20046;-89
2021/10/05 16:39:24;;;;;;;5.68;1.00;;;;;;;18.82;62.10;100289.34;4952788;28;20038;-89
2021/10/05 16:42:08;;;;;;;3.80;1.10;;;;;;;18.82;62.10;100284.13;4957681;28;20023;-88
2021/10/05 16:44:34;;;;;;;2.55;0.93;;;;;;;18.81;62.25;100287.59;4977993;28;20050;-79
2021/10/05 16:47:02;;;;;;;2.38;0.80;;;;;;;18.80;62.56;100289.34;4963357;28;20037;-83
2021/10/05 16:49:28;;;;;;;3.88;0.90;;;;;;;18.80;62.19;100293.72;4948924;28;20046;-87
2021/10/05 16:51:53;;;;;;;3.08;1.10;;;;;;;18.81;62.25;100295.41;4965317;28;20027;-79
2021/10/05 16:54:19;;;;;;;4.13;1.27;;;;;;;18.82;62.31;100298.00;4949903;28;20027;-86
2021/10/05 16:56:44;;;;;;;5.88;1.33;;;;;;;18.83;62.24;100291.88;4933201;28;20057;-85
2021/10/05 16:59:10;;;;;;;4.32;1.20;;;;;;;18.83;62.12;100293.63;4967570;28;20507;-85
2021/10/05 17:01:36;;;;;;;4.32;1.20;;;;;;;18.83;62.46;100294.47;4956059;28;20022;-86
2021/10/05 17:04:02;;;;;;;3.47;1.65;;;;;;;18.87;62.83;100293.53;4935294;28;20035;-87
2021/10/05 17:06:27;;;;;;;4.13;1.98;;;;;;;18.89;62.79;100293.50;4952704;28;20034;-84
2021/10/05 17:08:53;;;;;;;6.78;2.10;;;;;;;18.88;63.23;100286.59;4928197;28;20031;-84
2021/10/05 17:11:18;;;;;;;7.68;1.95;;;;;;;18.89;63.36;100290.88;4926433;28;20126;-83
2021/10/05 17:13:43;;;;;;;5.50;2.10;;;;;;;18.91;63.32;100291.72;4942582;28;20074;-84
2021/10/05 17:16:09;;;;;;;6.88;2.20;;;;;;;18.91;63.48;100289.09;4942720;28;20029;-82
2021/10/05 17:18:34;;;;;;;5.85;2.00;;;;;;;18.91;63.43;100283.88;4948692;28;20045;-86
2021/10/05 17:21:00;;;;;;;9.45;2.30;;;;;;;18.92;63.67;100296.03;4967513;28;20081;-86
2021/10/05 17:23:25;;;;;;;4.80;2.00;;;;;;;18.93;63.83;100300.34;4966277;28;20033;-86
2021/10/05 17:25:51;;;;;;;6.28;2.17;;;;;;;18.92;63.63;100298.63;4966975;28;20094;-87
2021/10/05 17:28:19;;;;;;;6.47;2.08;;;;;;;18.92;63.93;100303.84;4968458;28;20026;-86
2021/10/05 17:30:44;;;;;;;6.03;2.05;;;;;;;18.94;63.76;100312.47;4963286;28;20027;-88
2021/10/05 17:33:10;;;;;;;5.38;2.25;;;;;;;18.96;63.83;100320.28;4945969;28;20031;-85
2021/10/05 17:35:35;;;;;;;5.90;2.03;;;;;;;18.94;63.83;100319.47;4927570;28;20506;-86
2021/10/05 17:38:00;;;;;;;5.45;2.10;;;;;;;18.94;63.81;100311.63;4944555;28;20152;-85
2021/10/05 17:40:26;;;;;;;9.40;2.10;;;;;;;18.92;63.85;100316.88;4960149;28;20391;-84
2021/10/05 17:42:52;;;;;;;4.25;1.90;;;;;;;18.94;63.81;100325.53;4976351;28;20026;-84
2021/10/05 17:45:17;;;;;;;6.78;2.00;;;;;;;18.94;63.85;100322.06;4960760;28;20023;-80
2021/10/05 17:47:46;;;;;;;5.00;2.20;;;;;;;18.94;63.79;100320.31;4958389;28;20027;-89
2021/10/05 17:50:13;;;;;;;5.05;2.08;;;;;;;18.91;63.72;100313.41;4967082;28;20023;-86
2021/10/05 17:52:39;;;;;;;6.55;1.80;;;;;;;18.91;63.97;100318.63;4963251;28;20023;-85
2021/10/05 17:55:08;;;;;;;4.25;2.00;;;;;;;18.91;63.98;100320.38;4964535;28;20093;-85
2021/10/05 17:57:34;;;;;;;6.63;2.13;;;;;;;18.90;63.90;100321.28;4965503;28;20030;-88
2021/10/05 17:59:59;;;;;;;7.55;2.05;;;;;;;18.90;63.95;100313.44;4947896;28;20114;-86
2021/10/05 18:02:25;;;;;;;5.90;1.95;;;;;;;18.88;63.89;100315.25;4963913;28;20088;-85
2021/10/05 18:04:50;;;;;;;5.72;1.98;;;;;;;18.89;63.98;100319.56;4946775;28;20022;-85
2021/10/05 18:07:22;;;;;;;3.53;2.05;;;;;;;18.88;63.92;100325.69;4963043;28;20041;-84
2021/10/05 18:09:48;;;;;;;6.05;1.90;;;;;;;18.87;63.89;100319.59;4946775;28;20391;-85
2021/10/05 18:12:14;;;;;;;5.68;2.20;;;;;;;18.85;63.93;100320.53;4945339;28;20038;-84
2021/10/05 18:14:40;;;;;;;5.25;1.88;;;;;;;18.85;63.89;100331.81;4980281;28;20019;-86
2021/10/05 18:17:06;;;;;;;4.55;1.90;;;;;;;18.86;63.86;100324.88;4945947;28;20427;-85
2021/10/05 18:19:31;;;;;;;5.97;2.00;;;;;;;18.85;63.73;100326.59;4959846;28;20516;-84
2021/10/05 18:21:57;;;;;;;6.13;1.80;;;;;;;18.85;64.07;100328.34;4965578;28;20046;-85
2021/10/05 18:24:28;;;;;;;4.13;1.63;;;;;;;18.84;63.81;100332.72;4967828;28;20027;-84
2021/10/05 18:26:54;;;;;;;4.00;1.52;;;;;;;18.85;63.66;100333.56;4953855;28;20023;-84
2021/10/05 18:29:21;;;;;;;4.43;1.73;;;;;;;18.82;63.98;100334.50;4986514;28;20034;-85
2021/10/05 18:31:47;;;;;;;5.53;1.80;;;;;;;18.82;63.68;100329.28;4937968;28;20421;-83
2021/10/05 18:34:13;;;;;;;3.88;1.83;;;;;;;18.82;63.89;100334.50;4950495;28;20035;-86
2021/10/05 18:36:38;;;;;;;4.47;1.80;;;;;;;18.81;63.76;100332.75;4969246;28;20034;-85
2021/10/05 18:39:05;;;;;;;4.03;1.65;;;;;;;18.81;63.89;100337.97;4985823;28;20058;-84
2021/10/05 18:41:30;;;;;;;3.03;1.50;;;;;;;18.82;63.35;100337.09;4966561;28;20090;-86
2021/10/05 18:43:56;;;;;;;5.43;1.98;;;;;;;18.80;63.51;100336.28;4983675;28;20089;-86
2021/10/05 18:46:21;;;;;;;3.83;1.63;;;;;;;18.82;63.57;100362.31;4935612;28;20034;-85
2021/10/05 18:48:47;;;;;;;3.22;1.50;;;;;;;18.80;63.43;100353.69;4957609;28;20042;-86
2021/10/05 18:51:20;;;;;;;4.35;1.92;;;;;;;18.82;63.72;100362.31;4959841;28;20035;-85
2021/10/05 18:53:45;;;;;;;4.93;1.85;;;;;;;18.81;63.71;100374.47;4957548;28;20022;-86
2021/10/05 18:56:11;;;;;;;4.05;1.63;;;;;;;18.82;63.53;100373.59;4970090;28;20479;-85
2021/10/05 18:58:42;;;;;;;4.65;1.50;;;;;;;18.84;63.51;100373.56;4957223;28;20026;-84
2021/10/05 19:01:10;;;;;;;4.43;1.50;;;;;;;18.83;63.60;100372.69;4967726;28;20084;-85
2021/10/05 19:03:42;;;;;;;3.28;1.65;;;;;;;18.84;63.59;100366.59;4972565;28;20046;-85
2021/10/05 19:06:08;;;;;;;5.68;1.90;;;;;;;18.87;63.40;100381.31;4970328;28;20027;-85